DAOB/TID METAR and TAF weather

Enter ICAO airport designator
Station Type Date Time Source
DAOB METAR 2020/06/06 19:00 UTC NOAA

DAOB 061900Z 31006KT 9999 FEW026 SCT093 25/04 Q1014


Station Type Date Time Source
DAOB Decoded METAR 2020/06/06 19:00 UTC NOAA

Tiaret, Algeria (DAOB) 35-15N 001-26E 1127M
Jun 06, 2020 - 03:00 PM EDT / 2020.06.06 1900 UTC
Wind: from the NW (310 degrees) at 7 MPH (6 KT):0
Visibility: greater than 7 mile(s):0
Sky conditions: partly cloudy
Temperature: 77 F (25 C)
Dew Point: 39 F (4 C)
Relative Humidity: 25%
Pressure (altimeter): 29.94 in. Hg (1014 hPa)
ob: DAOB 061900Z 31006KT 9999 FEW026 SCT093 25/04 Q1014
cycle: 19

Station Type Date Time Source
DAOB TAF 2020/06/06 18:33 UTC NOAA

TAF DAOB 061700Z 0618/0718 30006KT 9999 FEW026 SCT100
BECMG 0705/0707 30016KT PROB30
TEMPO 0706/0712 30016G30KT FEW026CB

Example: see airport list